Terminal Aerodrome Forecast
Issued by NWS Binghamton, NY

Home | Current Version | Previous Version | Text Only | Print | Product List | Glossary On
Versions: 1 2 3 4 5 6 7 8 9 10 11 12 13 14 15 16 17 18 19 20 21
000
FTUS41 KBGM 150900 AAA
TAFSYR
TAF AMD
KSYR 150916Z 1509/1606 VRB03KT P6SM OVC050
     FM151400 23005KT P6SM SCT050 BKN150
     FM152300 19004KT P6SM OVC050=

USA.gov is the U.S. government's official web portal to all federal, state and local government web resources and services.